sensor_id;sensor_type;location;lat;lon;timestamp;pressure;altitude;pressure_sealevel;temperature;humidity
63343;BME280;49465;57.664;39.686;2023-05-15T00:02:05;101298.22;;;10.35;45.82
63343;BME280;49465;57.664;39.686;2023-05-15T00:04:34;101296.13;;;10.43;45.82
63343;BME280;49465;57.664;39.686;2023-05-15T00:07:03;101285.53;;;10.25;46.13
63343;BME280;49465;57.664;39.686;2023-05-15T00:09:32;101301.78;;;10.34;46.16
63343;BME280;49465;57.664;39.686;2023-05-15T00:11:59;101293.75;;;10.18;45.79
63343;BME280;49465;57.664;39.686;2023-05-15T00:14:35;101297.78;;;10.25;46.75
63343;BME280;49465;57.664;39.686;2023-05-15T00:17:02;101300.34;;;10.07;45.82
63343;BME280;49465;57.664;39.686;2023-05-15T00:19:31;101299.97;;;10.15;46.20
63343;BME280;49465;57.664;39.686;2023-05-15T00:22:00;101301.69;;;9.97;46.09
63343;BME280;49465;57.664;39.686;2023-05-15T00:24:30;101308.28;;;10.06;46.56
63343;BME280;49465;57.664;39.686;2023-05-15T00:27:00;101293.53;;;10.03;46.62
63343;BME280;49465;57.664;39.686;2023-05-15T00:29:27;101298.78;;;9.84;46.99
63343;BME280;49465;57.664;39.686;2023-05-15T00:31:56;101301.59;;;9.80;46.16
63343;BME280;49465;57.664;39.686;2023-05-15T00:34:25;101301.25;;;9.87;46.92
63343;BME280;49465;57.664;39.686;2023-05-15T00:36:57;101305.47;;;9.71;46.15
63343;BME280;49465;57.664;39.686;2023-05-15T00:39:27;101305.16;;;9.79;47.04
63343;BME280;49465;57.664;39.686;2023-05-15T00:41:53;101307.66;;;9.61;46.30
63343;BME280;49465;57.664;39.686;2023-05-15T00:44:21;101303.53;;;9.56;46.36
63343;BME280;49465;57.664;39.686;2023-05-15T00:46:52;101308.38;;;9.65;47.03
63343;BME280;49465;57.664;39.686;2023-05-15T00:49:22;101307.22;;;9.52;47.06
63343;BME280;49465;57.664;39.686;2023-05-15T00:51:49;101307.53;;;9.44;46.44
63343;BME280;49465;57.664;39.686;2023-05-15T00:54:21;101312.22;;;9.37;46.35
63343;BME280;49465;57.664;39.686;2023-05-15T00:56:51;101318.75;;;9.47;47.60
63343;BME280;49465;57.664;39.686;2023-05-15T00:59:18;101313.44;;;9.28;47.77
63343;BME280;49465;57.664;39.686;2023-05-15T01:01:47;101316.66;;;9.35;47.44
63343;BME280;49465;57.664;39.686;2023-05-15T01:04:18;101315.94;;;9.32;47.17
63343;BME280;49465;57.664;39.686;2023-05-15T01:06:48;101312.19;;;9.17;47.06
63343;BME280;49465;57.664;39.686;2023-05-15T01:09:15;101321.94;;;9.13;47.34
63343;BME280;49465;57.664;39.686;2023-05-15T01:11:42;101306.50;;;9.07;47.01
63343;BME280;49465;57.664;39.686;2023-05-15T01:14:09;101308.47;;;9.02;47.20
63343;BME280;49465;57.664;39.686;2023-05-15T01:16:44;101322.53;;;9.20;47.97
63343;BME280;49465;57.664;39.686;2023-05-15T01:19:14;101320.34;;;9.09;48.42
63343;BME280;49465;57.664;39.686;2023-05-15T01:25:35;101318.50;;;9.33;46.26
63343;BME280;49465;57.664;39.686;2023-05-15T01:28:04;101315.84;;;9.13;47.17
63343;BME280;49465;57.664;39.686;2023-05-15T01:30:40;101323.44;;;8.98;47.46
63343;BME280;49465;57.664;39.686;2023-05-15T01:33:24;101314.34;;;9.07;46.92
63343;BME280;49465;57.664;39.686;2023-05-15T01:36:08;101319.63;;;9.05;47.47
63343;BME280;49465;57.664;39.686;2023-05-15T01:38:51;101311.72;;;9.07;47.95
63343;BME280;49465;57.664;39.686;2023-05-15T01:41:40;101322.34;;;8.82;49.20
63343;BME280;49465;57.664;39.686;2023-05-15T01:44:15;101328.50;;;8.81;49.32
63343;BME280;49465;57.664;39.686;2023-05-15T01:46:50;101320.75;;;8.78;49.58
63343;BME280;49465;57.664;39.686;2023-05-15T01:49:21;101327.22;;;8.69;49.34
63343;BME280;49465;57.664;39.686;2023-05-15T01:51:54;101323.00;;;8.66;49.27
63343;BME280;49465;57.664;39.686;2023-05-15T01:54:24;101324.19;;;8.58;49.76
63343;BME280;49465;57.664;39.686;2023-05-15T01:57:04;101331.75;;;8.86;48.49
63343;BME280;49465;57.664;39.686;2023-05-15T01:59:32;101324.19;;;8.58;49.63
63343;BME280;49465;57.664;39.686;2023-05-15T02:02:04;101327.41;;;8.64;50.97
63343;BME280;49465;57.664;39.686;2023-05-15T02:04:34;101328.69;;;8.54;50.26
63343;BME280;49465;57.664;39.686;2023-05-15T02:07:02;101324.19;;;8.58;50.70
63343;BME280;49465;57.664;39.686;2023-05-15T02:09:33;101331.03;;;8.60;51.23
63343;BME280;49465;57.664;39.686;2023-05-15T02:12:02;101337.06;;;8.62;50.33
63343;BME280;49465;57.664;39.686;2023-05-15T02:14:32;101339.69;;;8.62;50.93
63343;BME280;49465;57.664;39.686;2023-05-15T02:17:03;101333.94;;;8.76;51.27
63343;BME280;49465;57.664;39.686;2023-05-15T02:19:29;101336.06;;;8.66;51.41
63343;BME280;49465;57.664;39.686;2023-05-15T02:21:56;101330.69;;;8.69;51.47
63343;BME280;49465;57.664;39.686;2023-05-15T02:24:26;101328.81;;;8.73;51.50
63343;BME280;49465;57.664;39.686;2023-05-15T02:27:21;101340.56;;;9.05;51.65
63343;BME280;49465;57.664;39.686;2023-05-15T02:30:15;101333.84;;;9.20;51.23
63343;BME280;49465;57.664;39.686;2023-05-15T02:33:11;101339.75;;;9.25;50.82
63343;BME280;49465;57.664;39.686;2023-05-15T02:35:41;101340.75;;;9.83;45.83
63343;BME280;49465;57.664;39.686;2023-05-15T02:38:29;101350.00;;;9.50;49.61
63343;BME280;49465;57.664;39.686;2023-05-15T02:41:00;101344.13;;;9.25;51.21
63343;BME280;49465;57.664;39.686;2023-05-15T02:43:28;101343.66;;;9.15;51.28
63343;BME280;49465;57.664;39.686;2023-05-15T02:45:56;101348.66;;;9.21;52.70
63343;BME280;49465;57.664;39.686;2023-05-15T02:48:23;101345.94;;;9.23;52.89
63343;BME280;49465;57.664;39.686;2023-05-15T02:50:51;101351.72;;;9.31;52.90
63343;BME280;49465;57.664;39.686;2023-05-15T02:53:20;101348.06;;;9.35;52.00
63343;BME280;49465;57.664;39.686;2023-05-15T02:55:50;101351.19;;;9.43;52.83
63343;BME280;49465;57.664;39.686;2023-05-15T02:58:19;101353.00;;;9.62;53.40
63343;BME280;49465;57.664;39.686;2023-05-15T03:00:46;101347.00;;;9.60;51.44
63343;BME280;49465;57.664;39.686;2023-05-15T03:03:12;101342.38;;;9.66;51.71
63343;BME280;49465;57.664;39.686;2023-05-15T03:05:39;101348.03;;;9.76;52.35
63343;BME280;49465;57.664;39.686;2023-05-15T03:08:05;101353.78;;;9.84;51.86
63343;BME280;49465;57.664;39.686;2023-05-15T03:10:31;101349.06;;;9.93;52.08
63343;BME280;49465;57.664;39.686;2023-05-15T03:12:58;101346.94;;;10.01;53.05
63343;BME280;49465;57.664;39.686;2023-05-15T03:15:25;101355.22;;;10.10;53.09
63343;BME280;49465;57.664;39.686;2023-05-15T03:17:51;101349.50;;;10.21;52.82
63343;BME280;49465;57.664;39.686;2023-05-15T03:20:20;101347.34;;;10.31;52.58
63343;BME280;49465;57.664;39.686;2023-05-15T03:22:49;101352.84;;;10.44;53.15
63343;BME280;49465;57.664;39.686;2023-05-15T03:25:15;101347.13;;;10.55;52.16
63343;BME280;49465;57.664;39.686;2023-05-15T03:27:41;101348.38;;;10.65;52.72
63343;BME280;49465;57.664;39.686;2023-05-15T03:30:11;101359.09;;;10.78;52.58
63343;BME280;49465;57.664;39.686;2023-05-15T03:32:40;101358.44;;;10.92;52.98
63343;BME280;49465;57.664;39.686;2023-05-15T03:35:10;101354.69;;;11.15;53.10
63343;BME280;49465;57.664;39.686;2023-05-15T03:37:36;101358.09;;;11.17;52.29
63343;BME280;49465;57.664;39.686;2023-05-15T03:40:03;101350.38;;;11.31;52.65
63343;BME280;49465;57.664;39.686;2023-05-15T03:42:32;101358.72;;;11.57;52.93
63343;BME280;49465;57.664;39.686;2023-05-15T03:44:59;101355.84;;;11.61;51.75
63343;BME280;49465;57.664;39.686;2023-05-15T03:47:39;101349.09;;;12.06;50.25
63343;BME280;49465;57.664;39.686;2023-05-15T03:50:09;101357.50;;;12.13;52.55
63343;BME280;49465;57.664;39.686;2023-05-15T03:52:38;101354.38;;;12.22;51.30
63343;BME280;49465;57.664;39.686;2023-05-15T03:55:05;101359.41;;;12.43;51.65
63343;BME280;49465;57.664;39.686;2023-05-15T03:57:34;101354.84;;;12.62;51.64
63343;BME280;49465;57.664;39.686;2023-05-15T04:00:01;101359.88;;;12.81;51.62
63343;BME280;49465;57.664;39.686;2023-05-15T04:02:35;101354.50;;;12.99;50.95
63343;BME280;49465;57.664;39.686;2023-05-15T04:05:05;101351.47;;;13.21;50.58
63343;BME280;49465;57.664;39.686;2023-05-15T04:07:37;101361.44;;;13.46;49.94
63343;BME280;49465;57.664;39.686;2023-05-15T04:10:05;101362.13;;;13.64;50.06
63343;BME280;49465;57.664;39.686;2023-05-15T04:12:33;101361.56;;;13.88;49.96
63343;BME280;49465;57.664;39.686;2023-05-15T04:17:47;101361.72;;;14.42;48.56
63343;BME280;49465;57.664;39.686;2023-05-15T04:20:23;101353.84;;;14.69;48.57
63343;BME280;49465;57.664;39.686;2023-05-15T04:22:51;101357.53;;;14.94;47.57
63343;BME280;49465;57.664;39.686;2023-05-15T04:25:21;101358.44;;;15.20;48.09
63343;BME280;49465;57.664;39.686;2023-05-15T04:27:47;101355.75;;;15.47;48.18
63343;BME280;49465;57.664;39.686;2023-05-15T04:30:14;101359.25;;;15.73;47.53
63343;BME280;49465;57.664;39.686;2023-05-15T04:32:41;101359.22;;;15.99;47.05
63343;BME280;49465;57.664;39.686;2023-05-15T04:35:08;101361.63;;;16.28;46.46
63343;BME280;49465;57.664;39.686;2023-05-15T04:37:42;101358.53;;;16.71;46.15
63343;BME280;49465;57.664;39.686;2023-05-15T04:40:10;101351.28;;;16.86;45.47
63343;BME280;49465;57.664;39.686;2023-05-15T04:42:38;101351.72;;;17.15;44.93
63343;BME280;49465;57.664;39.686;2023-05-15T04:45:06;101357.47;;;17.44;44.55
63343;BME280;49465;57.664;39.686;2023-05-15T04:47:32;101356.09;;;17.74;44.44
63343;BME280;49465;57.664;39.686;2023-05-15T04:49:59;101353.09;;;18.01;43.68
63343;BME280;49465;57.664;39.686;2023-05-15T04:52:25;101348.28;;;18.29;43.01
63343;BME280;49465;57.664;39.686;2023-05-15T04:54:51;101351.91;;;18.60;42.47
63343;BME280;49465;57.664;39.686;2023-05-15T04:57:20;101349.81;;;18.86;41.97
63343;BME280;49465;57.664;39.686;2023-05-15T04:59:47;101345.81;;;19.13;41.80
63343;BME280;49465;57.664;39.686;2023-05-15T05:02:13;101352.69;;;19.36;41.09
63343;BME280;49465;57.664;39.686;2023-05-15T05:04:43;101351.66;;;19.70;41.09
63343;BME280;49465;57.664;39.686;2023-05-15T05:07:11;101347.94;;;19.82;40.38
63343;BME280;49465;57.664;39.686;2023-05-15T05:09:38;101355.19;;;20.11;39.85
63343;BME280;49465;57.664;39.686;2023-05-15T05:12:06;101354.72;;;20.37;39.94
63343;BME280;49465;57.664;39.686;2023-05-15T05:14:36;101340.31;;;20.59;38.80
63343;BME280;49465;57.664;39.686;2023-05-15T05:17:03;101341.75;;;20.82;38.80
63343;BME280;49465;57.664;39.686;2023-05-15T05:19:29;101345.69;;;21.07;37.99
63343;BME280;49465;57.664;39.686;2023-05-15T05:21:56;101338.88;;;21.32;38.05
63343;BME280;49465;57.664;39.686;2023-05-15T05:24:23;101341.97;;;21.57;37.46
63343;BME280;49465;57.664;39.686;2023-05-15T05:26:52;101344.44;;;21.78;37.92
63343;BME280;49465;57.664;39.686;2023-05-15T05:29:19;101339.56;;;22.01;37.62
63343;BME280;49465;57.664;39.686;2023-05-15T05:31:46;101338.28;;;22.33;38.00
63343;BME280;49465;57.664;39.686;2023-05-15T05:34:22;101342.06;;;22.76;37.11
63343;BME280;49465;57.664;39.686;2023-05-15T05:36:51;101333.19;;;22.94;36.33
63343;BME280;49465;57.664;39.686;2023-05-15T05:39:17;101329.69;;;23.11;35.74
63343;BME280;49465;57.664;39.686;2023-05-15T05:41:44;101339.56;;;23.37;34.90
63343;BME280;49465;57.664;39.686;2023-05-15T05:44:10;101326.66;;;23.58;35.38
63343;BME280;49465;57.664;39.686;2023-05-15T05:46:37;101325.94;;;23.82;35.32
63343;BME280;49465;57.664;39.686;2023-05-15T05:49:03;101321.16;;;24.02;34.17
63343;BME280;49465;57.664;39.686;2023-05-15T05:51:30;101324.25;;;24.24;34.25
63343;BME280;49465;57.664;39.686;2023-05-15T05:53:57;101323.28;;;24.41;32.77
63343;BME280;49465;57.664;39.686;2023-05-15T05:56:29;101321.69;;;24.73;34.26
63343;BME280;49465;57.664;39.686;2023-05-15T05:59:01;101322.69;;;24.97;32.90
63343;BME280;49465;57.664;39.686;2023-05-15T06:01:39;101325.53;;;25.28;33.64
63343;BME280;49465;57.664;39.686;2023-05-15T06:04:14;101326.53;;;25.35;31.74
63343;BME280;49465;57.664;39.686;2023-05-15T06:06:47;101326.13;;;25.63;31.90
63343;BME280;49465;57.664;39.686;2023-05-15T06:09:15;101318.72;;;25.73;30.80
63343;BME280;49465;57.664;39.686;2023-05-15T06:11:41;101320.19;;;25.92;31.43
63343;BME280;49465;57.664;39.686;2023-05-15T06:14:11;101316.03;;;26.13;31.04
63343;BME280;49465;57.664;39.686;2023-05-15T06:16:40;101314.53;;;26.41;31.14
63343;BME280;49465;57.664;39.686;2023-05-15T06:19:07;101321.53;;;26.51;29.69
63343;BME280;49465;57.664;39.686;2023-05-15T06:21:33;101318.59;;;26.69;30.45
63343;BME280;49465;57.664;39.686;2023-05-15T06:24:02;101314.66;;;26.94;30.35
63343;BME280;49465;57.664;39.686;2023-05-15T06:26:33;101321.75;;;27.10;30.49
63343;BME280;49465;57.664;39.686;2023-05-15T06:29:03;101322.09;;;27.30;29.53
63343;BME280;49465;57.664;39.686;2023-05-15T06:31:29;101319.50;;;27.52;29.15
63343;BME280;49465;57.664;39.686;2023-05-15T06:33:58;101313.19;;;27.74;29.20
63343;BME280;49465;57.664;39.686;2023-05-15T06:36:25;101322.13;;;27.90;28.73
63343;BME280;49465;57.664;39.686;2023-05-15T06:38:54;101318.56;;;28.04;28.85
63343;BME280;49465;57.664;39.686;2023-05-15T06:41:30;101314.78;;;28.35;28.99
63343;BME280;49465;57.664;39.686;2023-05-15T06:43:57;101310.66;;;28.39;28.29
63343;BME280;49465;57.664;39.686;2023-05-15T06:46:33;101319.56;;;28.76;28.93
63343;BME280;49465;57.664;39.686;2023-05-15T06:49:00;101310.81;;;28.74;27.43
63343;BME280;49465;57.664;39.686;2023-05-15T06:51:26;101319.22;;;28.86;26.57
63343;BME280;49465;57.664;39.686;2023-05-15T06:54:03;101318.66;;;29.18;27.39
63343;BME280;49465;57.664;39.686;2023-05-15T06:56:31;101318.03;;;29.16;26.21
63343;BME280;49465;57.664;39.686;2023-05-15T06:59:00;101311.00;;;29.22;26.37
63343;BME280;49465;57.664;39.686;2023-05-15T07:01:38;101314.72;;;29.49;26.93
63343;BME280;49465;57.664;39.686;2023-05-15T07:04:10;101310.81;;;29.58;26.14
63343;BME280;49465;57.664;39.686;2023-05-15T07:06:37;101298.16;;;29.66;25.80
63343;BME280;49465;57.664;39.686;2023-05-15T07:09:06;101295.53;;;29.72;25.01
63343;BME280;49465;57.664;39.686;2023-05-15T07:11:44;101308.13;;;30.00;26.21
63343;BME280;49465;57.664;39.686;2023-05-15T07:14:10;101306.88;;;30.03;24.96
63343;BME280;49465;57.664;39.686;2023-05-15T07:16:42;101305.72;;;30.32;24.94
63343;BME280;49465;57.664;39.686;2023-05-15T07:19:08;101295.75;;;30.39;23.99
63343;BME280;49465;57.664;39.686;2023-05-15T07:21:38;101290.19;;;30.54;23.74
63343;BME280;49465;57.664;39.686;2023-05-15T07:24:07;101298.72;;;30.78;23.96
63343;BME280;49465;57.664;39.686;2023-05-15T07:26:34;101286.63;;;30.73;24.22
63343;BME280;49465;57.664;39.686;2023-05-15T07:29:04;101288.06;;;30.69;23.33
63343;BME280;49465;57.664;39.686;2023-05-15T07:31:34;101289.13;;;30.75;24.48
63343;BME280;49465;57.664;39.686;2023-05-15T07:34:03;101294.97;;;30.79;23.92
63343;BME280;49465;57.664;39.686;2023-05-15T07:36:32;101293.28;;;30.84;23.58
63343;BME280;49465;57.664;39.686;2023-05-15T07:39:04;101289.97;;;31.02;23.14
63343;BME280;49465;57.664;39.686;2023-05-15T07:41:36;101284.09;;;31.19;23.41
63343;BME280;49465;57.664;39.686;2023-05-15T07:44:03;101281.41;;;31.19;23.39
63343;BME280;49465;57.664;39.686;2023-05-15T07:46:34;101282.84;;;31.34;22.43
63343;BME280;49465;57.664;39.686;2023-05-15T07:49:03;101279.06;;;31.49;22.38
63343;BME280;49465;57.664;39.686;2023-05-15T07:51:33;101281.44;;;31.77;23.50
63343;BME280;49465;57.664;39.686;2023-05-15T07:54:02;101283.97;;;31.79;22.48
63343;BME280;49465;57.664;39.686;2023-05-15T07:56:31;101266.81;;;31.91;22.61
63343;BME280;49465;57.664;39.686;2023-05-15T07:58:58;101270.50;;;32.04;22.86
63343;BME280;49465;57.664;39.686;2023-05-15T08:01:29;101259.53;;;32.24;21.81
63343;BME280;49465;57.664;39.686;2023-05-15T08:03:56;101254.09;;;32.24;21.98
63343;BME280;49465;57.664;39.686;2023-05-15T08:06:23;101264.94;;;32.30;21.45
63343;BME280;49465;57.664;39.686;2023-05-15T08:08:52;101259.22;;;32.39;21.06
63343;BME280;49465;57.664;39.686;2023-05-15T08:11:19;101256.44;;;32.45;20.10
63343;BME280;49465;57.664;39.686;2023-05-15T08:13:53;101259.50;;;32.62;20.35
63343;BME280;49465;57.664;39.686;2023-05-15T08:16:19;101245.97;;;32.56;20.50
63343;BME280;49465;57.664;39.686;2023-05-15T08:18:49;101250.53;;;32.62;20.60
63343;BME280;49465;57.664;39.686;2023-05-15T08:21:21;101250.78;;;32.79;21.45
63343;BME280;49465;57.664;39.686;2023-05-15T08:23:50;101248.00;;;32.85;21.15
63343;BME280;49465;57.664;39.686;2023-05-15T08:26:19;101248.88;;;32.79;21.00
63343;BME280;49465;57.664;39.686;2023-05-15T08:28:46;101242.84;;;32.77;20.39
63343;BME280;49465;57.664;39.686;2023-05-15T08:31:15;101238.50;;;32.95;19.75
63343;BME280;49465;57.664;39.686;2023-05-15T08:33:46;101237.06;;;32.92;19.89
63343;BME280;49465;57.664;39.686;2023-05-15T08:36:13;101234.22;;;33.05;20.88
63343;BME280;49465;57.664;39.686;2023-05-15T08:38:44;101231.25;;;33.14;21.34
63343;BME280;49465;57.664;39.686;2023-05-15T08:41:20;101241.19;;;33.20;20.89
63343;BME280;49465;57.664;39.686;2023-05-15T08:43:50;101233.66;;;33.22;19.25
63343;BME280;49465;57.664;39.686;2023-05-15T08:46:24;101240.56;;;33.36;19.96
63343;BME280;49465;57.664;39.686;2023-05-15T08:52:05;101229.72;;;33.36;19.86
63343;BME280;49465;57.664;39.686;2023-05-15T08:54:31;101225.44;;;33.28;18.85
63343;BME280;49465;57.664;39.686;2023-05-15T08:57:05;101221.28;;;33.44;20.13
63343;BME280;49465;57.664;39.686;2023-05-15T08:59:32;101213.88;;;33.33;19.00
63343;BME280;49465;57.664;39.686;2023-05-15T09:01:59;101207.91;;;33.43;18.92
63343;BME280;49465;57.664;39.686;2023-05-15T09:04:40;101212.56;;;33.73;20.54
63343;BME280;49465;57.664;39.686;2023-05-15T09:07:07;101201.22;;;33.57;19.35
63343;BME280;49465;57.664;39.686;2023-05-15T09:09:43;101215.50;;;33.71;20.44
63343;BME280;49465;57.664;39.686;2023-05-15T09:12:16;101214.34;;;33.79;19.71
63343;BME280;49465;57.664;39.686;2023-05-15T09:14:47;101194.72;;;33.77;19.19
63343;BME280;49465;57.664;39.686;2023-05-15T09:17:17;101198.41;;;33.82;19.41
63343;BME280;49465;57.664;39.686;2023-05-15T09:19:45;101202.31;;;33.86;19.47
63343;BME280;49465;57.664;39.686;2023-05-15T09:22:23;101197.28;;;34.02;19.47
63343;BME280;49465;57.664;39.686;2023-05-15T09:25:02;101195.50;;;33.96;19.18
63343;BME280;49465;57.664;39.686;2023-05-15T09:27:41;101197.47;;;34.19;20.40
63343;BME280;49465;57.664;39.686;2023-05-15T09:30:13;101192.31;;;34.11;19.06
63343;BME280;49465;57.664;39.686;2023-05-15T09:32:42;101185.56;;;34.01;19.20
63343;BME280;49465;57.664;39.686;2023-05-15T09:35:31;101191.09;;;34.37;19.26
63343;BME280;49465;57.664;39.686;2023-05-15T09:38:07;101191.53;;;34.22;19.47
63343;BME280;49465;57.664;39.686;2023-05-15T09:40:36;101179.56;;;34.11;18.62
63343;BME280;49465;57.664;39.686;2023-05-15T09:43:08;101178.91;;;34.27;18.99
63343;BME280;49465;57.664;39.686;2023-05-15T09:45:40;101162.91;;;34.19;18.32
63343;BME280;49465;57.664;39.686;2023-05-15T09:48:24;101170.97;;;34.38;18.44
63343;BME280;49465;57.664;39.686;2023-05-15T09:50:56;101153.22;;;34.23;17.88
63343;BME280;49465;57.664;39.686;2023-05-15T09:53:23;101163.28;;;34.35;18.33
63343;BME280;49465;57.664;39.686;2023-05-15T09:56:00;101161.03;;;34.43;19.21
63343;BME280;49465;57.664;39.686;2023-05-15T09:58:37;101148.50;;;34.54;18.90
63343;BME280;49465;57.664;39.686;2023-05-15T10:01:13;101156.78;;;34.47;18.46
63343;BME280;49465;57.664;39.686;2023-05-15T10:04:00;101151.31;;;34.59;19.02
63343;BME280;49465;57.664;39.686;2023-05-15T10:06:49;101158.81;;;34.52;19.21
63343;BME280;49465;57.664;39.686;2023-05-15T10:09:21;101144.81;;;34.25;17.63
63343;BME280;49465;57.664;39.686;2023-05-15T10:11:50;101156.19;;;34.45;18.75
63343;BME280;49465;57.664;39.686;2023-05-15T10:14:25;101157.50;;;34.43;18.72
63343;BME280;49465;57.664;39.686;2023-05-15T10:16:57;101157.50;;;34.43;18.61
63343;BME280;49465;57.664;39.686;2023-05-15T10:19:41;101153.81;;;34.73;16.49
63343;BME280;49465;57.664;39.686;2023-05-15T10:22:14;101144.22;;;34.58;17.63
63343;BME280;49465;57.664;39.686;2023-05-15T10:24:56;101137.97;;;34.70;16.92
63343;BME280;49465;57.664;39.686;2023-05-15T10:27:30;101151.69;;;34.75;17.98
63343;BME280;49465;57.664;39.686;2023-05-15T10:30:20;101141.00;;;34.61;17.49
63343;BME280;49465;57.664;39.686;2023-05-15T10:32:50;101141.75;;;35.33;19.60
63343;BME280;49465;57.664;39.686;2023-05-15T10:35:17;101139.25;;;34.67;16.67
63343;BME280;49465;57.664;39.686;2023-05-15T10:37:47;101136.88;;;34.59;16.81
63343;BME280;49465;57.664;39.686;2023-05-15T10:40:18;101130.13;;;34.61;16.76
63343;BME280;49465;57.664;39.686;2023-05-15T10:42:50;101128.16;;;34.69;17.40
63343;BME280;49465;57.664;39.686;2023-05-15T10:45:22;101130.03;;;34.68;16.39
63343;BME280;49465;57.664;39.686;2023-05-15T10:47:52;101133.13;;;34.72;17.40
63343;BME280;49465;57.664;39.686;2023-05-15T10:50:21;101129.09;;;34.74;17.12
63343;BME280;49465;57.664;39.686;2023-05-15T10:52:51;101125.88;;;34.77;17.06
63343;BME280;49465;57.664;39.686;2023-05-15T10:55:22;101129.78;;;34.81;17.92
63343;BME280;49465;57.664;39.686;2023-05-15T10:57:55;101116.78;;;34.72;17.18
63343;BME280;49465;57.664;39.686;2023-05-15T11:00:28;101118.78;;;34.76;17.96
63343;BME280;49465;57.664;39.686;2023-05-15T11:02:59;101124.84;;;34.66;18.00
63343;BME280;49465;57.664;39.686;2023-05-15T11:05:29;101122.56;;;34.52;17.48
63343;BME280;49465;57.664;39.686;2023-05-15T11:10:51;101129.53;;;34.59;17.01
63343;BME280;49465;57.664;39.686;2023-05-15T11:13:21;101118.78;;;34.53;17.18
63343;BME280;49465;57.664;39.686;2023-05-15T11:15:51;101121.75;;;34.51;17.49
63343;BME280;49465;57.664;39.686;2023-05-15T11:18:20;101119.03;;;34.39;17.88
63343;BME280;49465;57.664;39.686;2023-05-15T11:23:26;101111.56;;;34.58;17.72
63343;BME280;49465;57.664;39.686;2023-05-15T11:25:55;101108.72;;;34.53;16.70
63343;BME280;49465;57.664;39.686;2023-05-15T11:28:23;101111.66;;;34.63;17.16
63343;BME280;49465;57.664;39.686;2023-05-15T11:30:57;101112.63;;;34.57;16.39
63343;BME280;49465;57.664;39.686;2023-05-15T11:33:31;101104.22;;;34.71;16.87
63343;BME280;49465;57.664;39.686;2023-05-15T11:35:59;101100.44;;;34.60;16.66
63343;BME280;49465;57.664;39.686;2023-05-15T11:38:37;101095.44;;;34.80;17.10
63343;BME280;49465;57.664;39.686;2023-05-15T11:41:16;101095.41;;;34.92;17.18
63343;BME280;49465;57.664;39.686;2023-05-15T11:43:44;101094.03;;;34.78;17.32
63343;BME280;49465;57.664;39.686;2023-05-15T11:46:17;101091.81;;;35.03;18.33
63343;BME280;49465;57.664;39.686;2023-05-15T11:48:44;101083.31;;;35.00;17.37
63343;BME280;49465;57.664;39.686;2023-05-15T11:51:21;101090.63;;;35.11;17.97
63343;BME280;49465;57.664;39.686;2023-05-15T11:53:55;101080.22;;;35.37;18.06
63343;BME280;49465;57.664;39.686;2023-05-15T11:56:26;101087.66;;;35.41;18.11
63343;BME280;49465;57.664;39.686;2023-05-15T11:58:59;101084.03;;;35.53;18.26
63343;BME280;49465;57.664;39.686;2023-05-15T12:01:42;101079.53;;;35.75;17.74
63343;BME280;49465;57.664;39.686;2023-05-15T12:04:16;101079.78;;;35.74;16.54
63343;BME280;49465;57.664;39.686;2023-05-15T12:06:43;101084.78;;;35.65;16.74
63343;BME280;49465;57.664;39.686;2023-05-15T12:09:16;101079.78;;;35.74;17.47
63343;BME280;49465;57.664;39.686;2023-05-15T12:11:52;101073.34;;;35.80;17.65
63343;BME280;49465;57.664;39.686;2023-05-15T12:14:29;101080.38;;;35.76;17.27
63343;BME280;49465;57.664;39.686;2023-05-15T12:17:02;101075.50;;;35.78;17.37
63343;BME280;49465;57.664;39.686;2023-05-15T12:19:38;101078.88;;;35.68;16.69
63343;BME280;49465;57.664;39.686;2023-05-15T12:22:05;101068.78;;;35.69;17.17
63343;BME280;49465;57.664;39.686;2023-05-15T12:24:36;101066.41;;;35.72;16.12
63343;BME280;49465;57.664;39.686;2023-05-15T12:27:05;101062.25;;;35.87;16.74
63343;BME280;49465;57.664;39.686;2023-05-15T12:29:34;101059.94;;;35.95;16.46
63343;BME280;49465;57.664;39.686;2023-05-15T12:32:02;101055.72;;;36.04;16.33
63343;BME280;49465;57.664;39.686;2023-05-15T12:34:32;101052.31;;;36.14;17.28
63343;BME280;49465;57.664;39.686;2023-05-15T12:36:59;101058.25;;;36.28;16.49
63343;BME280;49465;57.664;39.686;2023-05-15T12:39:26;101050.38;;;36.32;15.65
63343;BME280;49465;57.664;39.686;2023-05-15T12:41:55;101053.19;;;36.37;16.36
63343;BME280;49465;57.664;39.686;2023-05-15T12:44:27;101059.34;;;36.49;16.56
63343;BME280;49465;57.664;39.686;2023-05-15T12:46:54;101050.03;;;36.45;15.76
63343;BME280;49465;57.664;39.686;2023-05-15T12:49:23;101044.75;;;36.60;15.70
63343;BME280;49465;57.664;39.686;2023-05-15T12:51:50;101043.63;;;36.56;16.02
63343;BME280;49465;57.664;39.686;2023-05-15T12:54:17;101044.22;;;36.63;16.17
63343;BME280;49465;57.664;39.686;2023-05-15T12:56:44;101043.00;;;36.71;16.13
63343;BME280;49465;57.664;39.686;2023-05-15T12:59:12;101040.00;;;36.73;16.13
63343;BME280;49465;57.664;39.686;2023-05-15T13:01:41;101040.66;;;36.80;16.58
63343;BME280;49465;57.664;39.686;2023-05-15T13:04:08;101036.25;;;36.79;16.28
63343;BME280;49465;57.664;39.686;2023-05-15T13:06:38;101031.75;;;36.90;15.93
63343;BME280;49465;57.664;39.686;2023-05-15T13:09:14;101039.06;;;36.84;15.83
63343;BME280;49465;57.664;39.686;2023-05-15T13:11:48;101024.84;;;36.82;15.77
63343;BME280;49465;57.664;39.686;2023-05-15T13:14:20;101032.91;;;36.99;16.31
63343;BME280;49465;57.664;39.686;2023-05-15T13:16:48;101030.53;;;36.80;15.33